Date,TemperatureHighF,TemperatureAvgF,TemperatureLowF,DewpointHighF,DewpointAvgF,DewpointLowF,HumidityHigh,HumidityAvg,HumidityLow,PressureMaxIn,PressureMinIn,WindSpeedMaxMPH,WindSpeedAvgMPH,GustSpeedMaxMPH,PrecipitationSumIn
2013-8-1,79,65,55,62,58,54,99,81,54,30.02,29.88,5,1,10,0.01
2013-8-2,83,66,55,63,58,54,99,80,47,29.96,29.89,5,1,11,0.01
2013-8-3,83,67,56,63,59,55,99,78,48,29.99,29.91,5,1,11,0.00
2013-8-4,84,67,54,62,57,53,100,75,40,30.01,29.91,4,1,12,0.01
2013-8-5,86,66,53,61,54,48,95,73,29,29.99,29.90,5,1,12,0.01
2013-8-6,82,66,54,61,57,53,100,76,45,30.03,29.95,5,1,12,0.01
2013-8-7,83,64,52,61,56,51,98,78,40,30.06,29.96,4,1,12,0.01
2013-8-8,83,66,55,59,56,52,93,74,40,29.98,29.89,5,1,13,0.01
2013-8-9,80,67,54,60,56,53,97,72,47,29.95,29.89,5,1,14,0.01
2013-8-10,82,66,54,60,57,51,92,73,47,30.01,29.94,4,1,12,0.01
2013-8-11,85,68,54,61,57,52,97,72,40,29.99,29.88,4,1,12,0.01
2013-8-12,85,67,56,62,58,54,97,76,44,29.97,29.88,6,1,11,0.01
2013-8-13,87,69,55,62,56,-100,96,70,42,29.97,29.86,4,1,10,0.01
2013-8-14,74,61,57,61,50,-100,92,77,56,29.92,29.83,2,0,12,0.01
2013-8-15,90,59,54,64,40,-100,97,68,34,29.94,29.87,4,0,9,0.01
2013-8-16,91,65,61,61,51,-100,88,69,30,29.95,29.89,2,0,11,0.00
2013-8-17,89,69,59,59,54,-100,88,65,31,29.94,29.80,3,0,9,0.00
2013-8-18,88,68,59,59,56,52,90,71,32,29.90,29.79,2,0,10,0.00
2013-8-19,83,64,57,63,47,-100,97,74,48,29.94,29.85,4,1,11,0.00
2013-8-20,89,66,56,61,54,-100,97,74,31,29.93,29.84,4,1,10,0.01
2013-8-21,91,68,56,59,54,44,92,67,21,29.92,29.83,6,1,11,0.01
2013-8-22,94,74,58,55,51,38,83,52,14,29.91,29.81,4,1,13,0.00
2013-8-23,93,72,59,56,51,44,70,51,19,29.87,29.73,3,0,11,0.00
2013-8-24,92,71,60,59,51,-100,78,55,23,29.86,29.76,5,1,10,0.00
2013-8-25,92,72,59,57,51,44,78,52,21,29.92,29.83,5,1,12,0.00
2013-8-26,87,71,65,52,43,34,58,37,21,29.93,29.86,3,0,5,0.00
2013-8-27,91,76,72,58,49,44,47,39,32,29.86,29.80,5,0,11,0.00
2013-8-28,95,86,73,61,52,41,44,32,20,29.89,29.81,5,1,14,0.00
2013-8-29,99,90,76,58,53,48,53,31,20,29.94,29.87,5,1,12,0.00
2013-8-30,98,88,78,68,63,55,59,44,24,29.96,29.92,5,1,14,0.00
2013-8-31,94,81,73,70,64,-100,74,60,45,29.97,29.88,5,1,12,0.00